createdAt,value
2023-05-09T00:00:43.489Z,18.90
2023-05-09T00:05:47.472Z,16.45
2023-05-09T00:10:50.929Z,19.03
2023-05-09T00:15:57.474Z,16.35
2023-05-09T00:21:02.597Z,14.57
2023-05-09T00:26:06.489Z,16.80
2023-05-09T00:31:11.319Z,18.52
2023-05-09T00:36:14.857Z,17.38
2023-05-09T00:41:18.349Z,15.32
2023-05-09T00:46:24.087Z,22.20
2023-05-09T00:51:28.962Z,16.23
2023-05-09T01:01:38.058Z,17.67
2023-05-09T01:06:50.230Z,19.33
2023-05-09T01:12:07.607Z,22.00
2023-05-09T01:17:18.333Z,19.00
2023-05-09T01:22:25.549Z,19.13
2023-05-09T01:27:44.639Z,19.40
2023-05-09T01:32:52.812Z,18.25
2023-05-09T01:37:56.792Z,18.77
2023-05-09T01:43:05.254Z,17.37
2023-05-09T01:48:12.325Z,22.42
2023-05-09T01:53:16.951Z,22.13
2023-05-09T01:58:21.654Z,22.30
2023-05-09T02:03:27.044Z,19.48
2023-05-09T02:08:31.276Z,18.63
2023-05-09T02:13:34.898Z,21.23
2023-05-09T02:18:39.838Z,27.65
2023-05-09T02:23:43.457Z,17.90
2023-05-09T02:28:48.281Z,22.20
2023-05-09T02:33:54.782Z,23.63
2023-05-09T02:38:58.430Z,23.23
2023-05-09T02:44:01.918Z,20.95
2023-05-09T02:49:06.818Z,22.77
2023-05-09T02:54:10.271Z,21.10
2023-05-09T02:59:13.720Z,22.67
2023-05-09T03:04:19.897Z,21.58
2023-05-09T03:09:23.324Z,22.58
2023-05-09T03:14:26.806Z,19.92
2023-05-09T03:19:31.705Z,22.05
2023-05-09T03:24:35.246Z,18.67
2023-05-09T03:29:38.693Z,18.73
2023-05-09T03:34:43.556Z,17.45
2023-05-09T03:39:47.054Z,14.10
2023-05-09T03:44:50.573Z,13.00
2023-05-09T03:49:55.544Z,12.73
2023-05-09T04:00:02.241Z,12.10
2023-05-09T04:05:10.408Z,11.13
2023-05-09T04:10:13.987Z,11.60
2023-05-09T04:15:17.634Z,10.15
2023-05-09T04:20:22.812Z,9.47
2023-05-09T04:25:26.386Z,8.32
2023-05-09T04:30:29.959Z,9.80
2023-05-09T04:35:35.041Z,8.55
2023-05-09T04:40:38.461Z,9.82
2023-05-09T04:45:41.944Z,7.43
2023-05-09T04:50:48.615Z,8.07
2023-05-09T04:55:55.118Z,7.15
2023-05-09T05:00:58.619Z,5.25
2023-05-09T05:11:06.734Z,5.25
2023-05-09T05:16:10.203Z,5.75
2023-05-09T05:21:16.448Z,5.95
2023-05-09T05:26:19.949Z,4.40
2023-05-09T05:31:23.589Z,3.53
2023-05-09T05:36:28.585Z,4.20
2023-05-09T05:41:32.135Z,4.22
2023-05-09T05:46:35.642Z,5.38
2023-05-09T05:51:40.932Z,4.20
2023-05-09T05:56:44.466Z,3.67
2023-05-09T06:01:48.024Z,2.83
2023-05-09T06:06:52.988Z,2.50
2023-05-09T06:11:56.444Z,5.20
2023-05-09T06:17:00.269Z,3.55
2023-05-09T06:22:05.239Z,2.35
2023-05-09T06:27:08.816Z,2.55
2023-05-09T06:32:12.311Z,2.08
2023-05-09T06:37:17.377Z,2.85
2023-05-09T06:42:20.899Z,3.10
2023-05-09T06:52:29.017Z,3.03
2023-05-09T06:57:32.636Z,2.50
2023-05-09T07:02:36.136Z,3.47
2023-05-09T07:07:41.169Z,3.92
2023-05-09T07:12:44.684Z,4.30
2023-05-09T07:17:48.173Z,2.37
2023-05-09T07:22:53.203Z,2.90
2023-05-09T07:27:56.806Z,2.88
2023-05-09T07:33:01.610Z,2.67
2023-05-09T07:38:06.683Z,2.20
2023-05-09T07:43:10.148Z,3.95
2023-05-09T07:48:13.699Z,3.38
2023-05-09T07:53:18.738Z,2.70
2023-05-09T07:58:22.226Z,2.55
2023-05-09T08:03:26.097Z,3.47
2023-05-09T08:08:31.236Z,2.90
2023-05-09T08:13:34.777Z,3.75
2023-05-09T08:18:38.311Z,5.35
2023-05-09T08:23:43.510Z,3.58
2023-05-09T08:28:47.027Z,2.50
2023-05-09T08:33:50.568Z,3.08
2023-05-09T08:38:55.668Z,7.30
2023-05-09T08:43:59.447Z,2.55
2023-05-09T08:49:03.343Z,3.88
2023-05-09T08:54:08.601Z,2.22
2023-05-09T08:59:12.241Z,3.67
2023-05-09T09:04:15.987Z,3.07
2023-05-09T09:09:21.712Z,2.35
2023-05-09T09:14:26.958Z,5.78
2023-05-09T09:19:32.699Z,2.72
2023-05-09T09:24:37.857Z,2.88
2023-05-09T09:29:42.161Z,2.95
2023-05-09T09:34:45.838Z,2.55
2023-05-09T09:39:57.094Z,2.17
2023-05-09T09:45:04.403Z,4.85
2023-05-09T09:50:13.469Z,3.47
2023-05-09T09:55:18.808Z,5.38
2023-05-09T10:00:28.597Z,2.72
2023-05-09T10:05:34.581Z,5.30
2023-05-09T10:10:39.597Z,2.65
2023-05-09T10:15:53.049Z,2.80
2023-05-09T10:21:01.103Z,2.38
2023-05-09T10:26:17.467Z,6.28
2023-05-09T10:31:24.467Z,2.17
2023-05-09T10:36:28.810Z,3.25
2023-05-09T10:41:34.356Z,3.17
2023-05-09T10:46:38.856Z,5.57
2023-05-09T10:56:47.058Z,2.53
2023-05-09T11:02:01.144Z,5.13
2023-05-09T11:07:04.833Z,3.42
2023-05-09T11:12:15.192Z,4.67
2023-05-09T11:17:31.848Z,4.63
2023-05-09T11:22:41.532Z,2.78
2023-05-09T11:27:48.711Z,6.50
2023-05-09T11:32:53.904Z,5.70
2023-05-09T11:38:02.283Z,3.10
2023-05-09T11:43:09.478Z,2.83
2023-05-09T11:48:12.946Z,24.63
2023-05-09T11:53:16.416Z,13.20
2023-05-09T11:58:21.684Z,5.28
2023-05-09T12:03:25.343Z,3.90
2023-05-09T12:08:30.396Z,3.73
2023-05-09T12:13:36.276Z,7.95
2023-05-09T12:18:39.761Z,7.97
2023-05-09T12:23:43.646Z,3.92
2023-05-09T12:28:49.926Z,2.97
2023-05-09T12:33:53.554Z,11.18
2023-05-09T12:38:57.532Z,7.18
2023-05-09T12:44:02.554Z,8.77
2023-05-09T12:49:06.179Z,3.90
2023-05-09T12:54:11.149Z,2.72
2023-05-09T12:59:22.502Z,13.43
2023-05-09T13:04:27.787Z,6.15
2023-05-09T13:09:31.667Z,4.57
2023-05-09T13:14:36.655Z,3.60
2023-05-09T13:19:40.192Z,2.45
2023-05-09T13:24:43.818Z,2.50
2023-05-09T13:29:48.705Z,2.60
2023-05-09T13:34:52.529Z,3.97
2023-05-09T13:39:56.416Z,6.03
2023-05-09T13:45:01.491Z,38.70
2023-05-09T13:50:09.585Z,2.85
2023-05-09T13:55:13.111Z,3.10
2023-05-09T14:00:18.505Z,4.95
2023-05-09T14:05:22.825Z,7.18
2023-05-09T14:10:27.321Z,4.15
2023-05-09T14:20:37.431Z,6.63
2023-05-09T14:25:41.131Z,2.80
2023-05-09T14:30:46.168Z,4.22
2023-05-09T14:35:49.929Z,3.33
2023-05-09T14:40:53.485Z,3.00
2023-05-09T14:45:58.608Z,4.90
2023-05-09T14:51:02.193Z,5.35
2023-05-09T14:56:06.953Z,4.43
2023-05-09T15:01:11.918Z,3.28
2023-05-09T15:06:15.607Z,4.75
2023-05-09T15:11:19.122Z,3.10
2023-05-09T15:16:24.204Z,4.95
2023-05-09T15:21:29.113Z,7.97
2023-05-09T15:26:32.781Z,3.35
2023-05-09T15:31:38.120Z,3.58
2023-05-09T15:36:41.662Z,4.60
2023-05-09T15:41:45.349Z,4.95
2023-05-09T15:46:50.442Z,4.43
2023-05-09T15:51:53.950Z,4.90
2023-05-09T15:56:57.593Z,5.90
2023-05-09T16:02:02.557Z,5.72
2023-05-09T16:07:06.254Z,5.93
2023-05-09T16:12:09.777Z,5.15
2023-05-09T16:17:14.824Z,4.38
2023-05-09T16:22:18.372Z,4.40
2023-05-09T16:27:22.005Z,9.85
2023-05-09T16:32:26.994Z,6.82
2023-05-09T16:37:30.509Z,5.80
2023-05-09T16:42:34.226Z,5.43
2023-05-09T16:47:39.303Z,5.10
2023-05-09T16:52:42.854Z,3.20
2023-05-09T16:57:46.359Z,4.53
2023-05-09T17:02:51.483Z,6.13
2023-05-09T17:07:55.082Z,4.97
2023-05-09T17:12:58.722Z,5.05
2023-05-09T17:18:03.911Z,6.60
2023-05-09T17:23:07.527Z,5.35
2023-05-09T17:28:11.195Z,5.70
2023-05-09T17:33:18.852Z,3.45
2023-05-09T17:38:22.384Z,5.47
2023-05-09T17:43:27.946Z,5.65
2023-05-09T17:48:33.007Z,5.68
2023-05-09T17:53:36.715Z,4.60
2023-05-09T17:58:40.329Z,4.85
2023-05-09T18:03:45.455Z,4.55
2023-05-09T18:08:49.289Z,4.22
2023-05-09T18:13:52.985Z,4.47
2023-05-09T18:18:59.524Z,4.45
2023-05-09T18:24:03.197Z,5.43
2023-05-09T18:29:06.889Z,8.88
2023-05-09T18:34:12.422Z,6.38
2023-05-09T18:39:16.200Z,6.57
2023-05-09T18:44:19.837Z,7.75
2023-05-09T18:49:26.396Z,6.38
2023-05-09T18:54:30.154Z,4.68
2023-05-09T18:59:33.767Z,4.72
2023-05-09T19:04:38.880Z,5.38
2023-05-09T19:09:42.538Z,4.53
2023-05-09T19:14:46.198Z,7.88
2023-05-09T19:19:51.218Z,5.68
2023-05-09T19:24:54.859Z,14.45
2023-05-09T19:29:59.531Z,16.27
2023-05-09T19:35:04.635Z,14.77
2023-05-09T19:40:09.315Z,20.77
2023-05-09T19:45:13.856Z,14.98
2023-05-09T19:50:19.872Z,18.33
2023-05-09T19:55:23.670Z,19.33
2023-05-09T20:00:27.801Z,17.63
2023-05-09T20:05:32.885Z,20.40
2023-05-09T20:10:36.772Z,19.90
2023-05-09T20:15:40.451Z,17.90
2023-05-09T20:20:45.818Z,20.58
2023-05-09T20:25:49.331Z,16.27
2023-05-09T20:30:52.920Z,24.20
2023-05-09T20:35:57.874Z,24.17
2023-05-09T20:41:01.790Z,25.92
2023-05-09T20:46:05.476Z,22.92
2023-05-09T20:51:10.766Z,23.98
2023-05-09T20:56:14.406Z,24.08
2023-05-09T21:01:17.949Z,24.52
2023-05-09T21:06:22.928Z,23.05
2023-05-09T21:16:29.763Z,19.13
2023-05-09T21:21:34.781Z,15.57
2023-05-09T21:31:41.508Z,16.92
2023-05-09T21:36:46.370Z,18.55
2023-05-09T21:46:53.170Z,14.48
2023-05-09T21:51:58.215Z,16.35
2023-05-09T21:57:01.822Z,16.85
2023-05-09T22:02:05.538Z,17.63
2023-05-09T22:07:10.518Z,16.08
2023-05-09T22:17:17.279Z,19.63
2023-05-09T22:22:22.696Z,15.73
2023-05-09T22:27:26.218Z,16.70
2023-05-09T22:32:29.753Z,20.95
2023-05-09T22:37:34.634Z,19.77
2023-05-09T22:47:41.419Z,21.05
2023-05-09T22:52:46.324Z,15.68
2023-05-09T23:02:53.108Z,12.20
2023-05-09T23:07:59.230Z,16.38
2023-05-09T23:18:06.001Z,12.45
2023-05-09T23:23:10.887Z,18.73
2023-05-09T23:33:17.672Z,17.08
2023-05-09T23:38:22.726Z,16.00
2023-05-09T23:43:26.262Z,15.70
2023-05-09T23:48:29.706Z,15.90
2023-05-09T23:53:35.345Z,17.45
2023-05-09T23:58:38.967Z,14.90
